sensor_id;sensor_type;location;lat;lon;timestamp;temperature;humidity
17831;DHT22;9040;51.332;12.406;2022-09-20T00:02:20;10.90;99.90
17831;DHT22;9040;51.332;12.406;2022-09-20T00:04:47;10.90;99.90
17831;DHT22;9040;51.332;12.406;2022-09-20T00:07:14;10.90;99.90
17831;DHT22;9040;51.332;12.406;2022-09-20T00:09:41;10.90;99.90
17831;DHT22;9040;51.332;12.406;2022-09-20T00:12:09;10.90;99.90
17831;DHT22;9040;51.332;12.406;2022-09-20T00:14:36;10.90;99.90
17831;DHT22;9040;51.332;12.406;2022-09-20T00:17:03;10.90;99.90
17831;DHT22;9040;51.332;12.406;2022-09-20T00:19:30;10.90;99.90
17831;DHT22;9040;51.332;12.406;2022-09-20T00:21:57;11.00;99.90
17831;DHT22;9040;51.332;12.406;2022-09-20T00:24:24;10.90;99.90
17831;DHT22;9040;51.332;12.406;2022-09-20T00:26:51;10.90;99.90
17831;DHT22;9040;51.332;12.406;2022-09-20T00:29:21;10.90;99.90
17831;DHT22;9040;51.332;12.406;2022-09-20T00:31:48;10.90;99.90
17831;DHT22;9040;51.332;12.406;2022-09-20T00:34:14;10.90;99.90
17831;DHT22;9040;51.332;12.406;2022-09-20T00:36:59;10.90;99.90
17831;DHT22;9040;51.332;12.406;2022-09-20T00:39:26;10.90;99.90
17831;DHT22;9040;51.332;12.406;2022-09-20T00:41:53;10.90;99.90
17831;DHT22;9040;51.332;12.406;2022-09-20T00:44:53;11.00;99.90
17831;DHT22;9040;51.332;12.406;2022-09-20T00:47:26;10.90;99.90
17831;DHT22;9040;51.332;12.406;2022-09-20T00:49:57;10.90;99.90
17831;DHT22;9040;51.332;12.406;2022-09-20T00:52:26;10.90;99.90
17831;DHT22;9040;51.332;12.406;2022-09-20T00:54:54;10.90;99.90
17831;DHT22;9040;51.332;12.406;2022-09-20T00:57:22;10.90;99.90
17831;DHT22;9040;51.332;12.406;2022-09-20T00:59:51;11.00;99.90
17831;DHT22;9040;51.332;12.406;2022-09-20T01:02:23;11.00;99.90
17831;DHT22;9040;51.332;12.406;2022-09-20T01:04:52;10.90;99.90
17831;DHT22;9040;51.332;12.406;2022-09-20T01:07:20;10.90;99.90
17831;DHT22;9040;51.332;12.406;2022-09-20T01:09:48;10.90;99.90
17831;DHT22;9040;51.332;12.406;2022-09-20T01:12:17;10.90;99.90
17831;DHT22;9040;51.332;12.406;2022-09-20T01:14:46;10.90;99.90
17831;DHT22;9040;51.332;12.406;2022-09-20T01:17:17;10.90;99.90
17831;DHT22;9040;51.332;12.406;2022-09-20T01:19:51;10.90;99.90
17831;DHT22;9040;51.332;12.406;2022-09-20T01:22:24;10.90;99.90
17831;DHT22;9040;51.332;12.406;2022-09-20T01:24:58;10.90;99.90
17831;DHT22;9040;51.332;12.406;2022-09-20T01:27:44;10.80;99.90
17831;DHT22;9040;51.332;12.406;2022-09-20T01:30:14;10.80;99.90
17831;DHT22;9040;51.332;12.406;2022-09-20T01:32:51;10.70;99.90
17831;DHT22;9040;51.332;12.406;2022-09-20T01:35:23;10.70;99.90
17831;DHT22;9040;51.332;12.406;2022-09-20T01:38:04;10.80;99.90
17831;DHT22;9040;51.332;12.406;2022-09-20T01:40:42;10.80;99.90
17831;DHT22;9040;51.332;12.406;2022-09-20T01:43:19;10.80;99.90
17831;DHT22;9040;51.332;12.406;2022-09-20T01:45:52;10.80;99.90
17831;DHT22;9040;51.332;12.406;2022-09-20T01:48:26;10.80;99.90
17831;DHT22;9040;51.332;12.406;2022-09-20T01:51:16;10.80;99.90
17831;DHT22;9040;51.332;12.406;2022-09-20T01:54:10;10.80;99.90
17831;DHT22;9040;51.332;12.406;2022-09-20T02:00:03;10.80;99.90
17831;DHT22;9040;51.332;12.406;2022-09-20T02:05:46;10.80;99.90
17831;DHT22;9040;51.332;12.406;2022-09-20T02:11:16;10.80;99.90
17831;DHT22;9040;51.332;12.406;2022-09-20T02:14:02;10.70;99.90
17831;DHT22;9040;51.332;12.406;2022-09-20T02:16:40;10.70;99.90
17831;DHT22;9040;51.332;12.406;2022-09-20T02:19:30;10.70;99.90
17831;DHT22;9040;51.332;12.406;2022-09-20T02:22:27;10.70;99.90
17831;DHT22;9040;51.332;12.406;2022-09-20T02:25:06;10.70;99.90
17831;DHT22;9040;51.332;12.406;2022-09-20T02:27:43;10.70;99.90
17831;DHT22;9040;51.332;12.406;2022-09-20T02:30:22;10.70;99.90
17831;DHT22;9040;51.332;12.406;2022-09-20T02:33:30;10.70;99.90
17831;DHT22;9040;51.332;12.406;2022-09-20T02:36:13;10.70;99.90
17831;DHT22;9040;51.332;12.406;2022-09-20T02:38:53;10.70;99.90
17831;DHT22;9040;51.332;12.406;2022-09-20T02:41:54;10.60;99.90
17831;DHT22;9040;51.332;12.406;2022-09-20T02:44:38;10.60;99.90
17831;DHT22;9040;51.332;12.406;2022-09-20T02:47:13;10.60;99.90
17831;DHT22;9040;51.332;12.406;2022-09-20T02:49:52;10.50;99.90
17831;DHT22;9040;51.332;12.406;2022-09-20T02:52:28;10.60;99.90
17831;DHT22;9040;51.332;12.406;2022-09-20T02:55:02;10.60;99.90
17831;DHT22;9040;51.332;12.406;2022-09-20T02:57:38;10.60;99.90
17831;DHT22;9040;51.332;12.406;2022-09-20T03:00:10;10.60;99.90
17831;DHT22;9040;51.332;12.406;2022-09-20T03:02:47;10.50;99.90
17831;DHT22;9040;51.332;12.406;2022-09-20T03:05:22;10.60;99.90
17831;DHT22;9040;51.332;12.406;2022-09-20T03:08:03;10.50;99.90
17831;DHT22;9040;51.332;12.406;2022-09-20T03:10:39;10.50;99.90
17831;DHT22;9040;51.332;12.406;2022-09-20T03:13:14;10.60;99.90
17831;DHT22;9040;51.332;12.406;2022-09-20T03:15:54;10.60;99.90
17831;DHT22;9040;51.332;12.406;2022-09-20T03:18:32;10.50;99.90
17831;DHT22;9040;51.332;12.406;2022-09-20T03:21:11;10.50;99.90
17831;DHT22;9040;51.332;12.406;2022-09-20T03:23:53;10.40;99.90
17831;DHT22;9040;51.332;12.406;2022-09-20T03:26:33;10.50;99.90
17831;DHT22;9040;51.332;12.406;2022-09-20T03:29:08;10.40;99.90
17831;DHT22;9040;51.332;12.406;2022-09-20T03:31:54;10.40;99.90
17831;DHT22;9040;51.332;12.406;2022-09-20T03:34:38;10.50;99.90
17831;DHT22;9040;51.332;12.406;2022-09-20T03:37:27;10.50;99.90
17831;DHT22;9040;51.332;12.406;2022-09-20T03:40:22;10.40;99.90
17831;DHT22;9040;51.332;12.406;2022-09-20T03:42:53;10.40;99.90
17831;DHT22;9040;51.332;12.406;2022-09-20T03:51:18;10.40;99.90
17831;DHT22;9040;51.332;12.406;2022-09-20T03:54:22;10.40;99.90
17831;DHT22;9040;51.332;12.406;2022-09-20T03:57:11;10.30;99.90
17831;DHT22;9040;51.332;12.406;2022-09-20T04:00:01;10.30;99.90
17831;DHT22;9040;51.332;12.406;2022-09-20T04:02:45;10.30;99.90
17831;DHT22;9040;51.332;12.406;2022-09-20T04:05:19;10.40;99.90
17831;DHT22;9040;51.332;12.406;2022-09-20T04:07:58;10.40;99.90
17831;DHT22;9040;51.332;12.406;2022-09-20T04:10:42;10.30;99.90
17831;DHT22;9040;51.332;12.406;2022-09-20T04:13:19;10.30;99.90
17831;DHT22;9040;51.332;12.406;2022-09-20T04:16:00;10.30;99.90
17831;DHT22;9040;51.332;12.406;2022-09-20T04:18:34;10.30;99.90
17831;DHT22;9040;51.332;12.406;2022-09-20T04:21:07;10.20;99.90
17831;DHT22;9040;51.332;12.406;2022-09-20T04:23:43;10.30;99.90
17831;DHT22;9040;51.332;12.406;2022-09-20T04:26:14;10.30;99.90
17831;DHT22;9040;51.332;12.406;2022-09-20T04:28:47;10.20;99.90
17831;DHT22;9040;51.332;12.406;2022-09-20T04:31:26;10.30;99.90
17831;DHT22;9040;51.332;12.406;2022-09-20T04:33:56;10.20;99.90
17831;DHT22;9040;51.332;12.406;2022-09-20T04:36:53;10.20;99.90
17831;DHT22;9040;51.332;12.406;2022-09-20T04:39:27;10.20;99.90
17831;DHT22;9040;51.332;12.406;2022-09-20T04:42:20;10.20;99.90
17831;DHT22;9040;51.332;12.406;2022-09-20T04:48:32;10.20;99.90
17831;DHT22;9040;51.332;12.406;2022-09-20T04:51:31;10.20;99.90
17831;DHT22;9040;51.332;12.406;2022-09-20T04:57:31;10.20;99.90
17831;DHT22;9040;51.332;12.406;2022-09-20T05:00:05;10.20;99.90
17831;DHT22;9040;51.332;12.406;2022-09-20T05:05:55;10.20;99.90
17831;DHT22;9040;51.332;12.406;2022-09-20T05:11:42;10.20;99.90
17831;DHT22;9040;51.332;12.406;2022-09-20T05:14:44;10.20;99.90
17831;DHT22;9040;51.332;12.406;2022-09-20T05:17:25;10.20;99.90
17831;DHT22;9040;51.332;12.406;2022-09-20T05:20:14;10.20;99.90
17831;DHT22;9040;51.332;12.406;2022-09-20T05:23:20;10.20;99.90
17831;DHT22;9040;51.332;12.406;2022-09-20T05:26:07;10.20;99.90
17831;DHT22;9040;51.332;12.406;2022-09-20T05:28:43;10.30;99.90
17831;DHT22;9040;51.332;12.406;2022-09-20T05:31:19;10.30;99.90
17831;DHT22;9040;51.332;12.406;2022-09-20T05:33:52;10.30;99.90
17831;DHT22;9040;51.332;12.406;2022-09-20T05:36:28;10.40;99.90
17831;DHT22;9040;51.332;12.406;2022-09-20T05:39:01;10.40;99.90
17831;DHT22;9040;51.332;12.406;2022-09-20T05:41:39;10.30;99.90
17831;DHT22;9040;51.332;12.406;2022-09-20T05:44:18;10.30;99.90
17831;DHT22;9040;51.332;12.406;2022-09-20T05:46:57;10.40;99.90
17831;DHT22;9040;51.332;12.406;2022-09-20T05:49:38;10.40;99.90
17831;DHT22;9040;51.332;12.406;2022-09-20T05:52:20;10.40;99.90
17831;DHT22;9040;51.332;12.406;2022-09-20T05:55:15;10.40;99.90
17831;DHT22;9040;51.332;12.406;2022-09-20T05:57:57;10.40;99.90
17831;DHT22;9040;51.332;12.406;2022-09-20T06:00:33;10.50;99.90
17831;DHT22;9040;51.332;12.406;2022-09-20T06:03:11;10.40;99.90
17831;DHT22;9040;51.332;12.406;2022-09-20T06:05:48;10.50;99.90
17831;DHT22;9040;51.332;12.406;2022-09-20T06:08:41;10.40;99.90
17831;DHT22;9040;51.332;12.406;2022-09-20T06:11:21;10.50;99.90
17831;DHT22;9040;51.332;12.406;2022-09-20T06:14:02;10.40;99.90
17831;DHT22;9040;51.332;12.406;2022-09-20T06:16:39;10.40;99.90
17831;DHT22;9040;51.332;12.406;2022-09-20T06:19:17;10.40;99.90
17831;DHT22;9040;51.332;12.406;2022-09-20T06:21:50;10.40;99.90
17831;DHT22;9040;51.332;12.406;2022-09-20T06:24:30;10.40;99.90
17831;DHT22;9040;51.332;12.406;2022-09-20T06:27:00;10.40;99.90
17831;DHT22;9040;51.332;12.406;2022-09-20T06:29:31;10.40;99.90
17831;DHT22;9040;51.332;12.406;2022-09-20T06:31:59;10.50;99.90
17831;DHT22;9040;51.332;12.406;2022-09-20T06:34:27;10.60;99.90
17831;DHT22;9040;51.332;12.406;2022-09-20T06:37:06;10.60;99.90
17831;DHT22;9040;51.332;12.406;2022-09-20T06:40:00;10.60;99.90
17831;DHT22;9040;51.332;12.406;2022-09-20T06:42:45;10.70;99.90
17831;DHT22;9040;51.332;12.406;2022-09-20T06:45:12;10.70;99.90
17831;DHT22;9040;51.332;12.406;2022-09-20T06:47:39;10.70;99.90
17831;DHT22;9040;51.332;12.406;2022-09-20T06:50:13;10.70;99.90
17831;DHT22;9040;51.332;12.406;2022-09-20T06:52:41;10.70;99.90
17831;DHT22;9040;51.332;12.406;2022-09-20T06:55:15;10.70;99.90
17831;DHT22;9040;51.332;12.406;2022-09-20T06:57:44;10.70;99.90
17831;DHT22;9040;51.332;12.406;2022-09-20T07:00:13;10.70;99.90
17831;DHT22;9040;51.332;12.406;2022-09-20T07:02:40;10.70;99.90
17831;DHT22;9040;51.332;12.406;2022-09-20T07:05:13;10.80;99.90
17831;DHT22;9040;51.332;12.406;2022-09-20T07:07:40;10.80;99.90
17831;DHT22;9040;51.332;12.406;2022-09-20T07:10:08;10.90;99.90
17831;DHT22;9040;51.332;12.406;2022-09-20T07:12:35;10.90;99.90
17831;DHT22;9040;51.332;12.406;2022-09-20T07:15:05;10.90;99.90
17831;DHT22;9040;51.332;12.406;2022-09-20T07:17:33;10.90;99.90
17831;DHT22;9040;51.332;12.406;2022-09-20T07:20:00;10.90;99.90
17831;DHT22;9040;51.332;12.406;2022-09-20T07:22:28;11.00;99.90
17831;DHT22;9040;51.332;12.406;2022-09-20T07:24:55;11.00;99.90
17831;DHT22;9040;51.332;12.406;2022-09-20T07:27:23;11.10;99.90
17831;DHT22;9040;51.332;12.406;2022-09-20T07:29:50;11.10;99.90
17831;DHT22;9040;51.332;12.406;2022-09-20T07:32:17;11.10;99.90
17831;DHT22;9040;51.332;12.406;2022-09-20T07:34:44;11.10;99.90
17831;DHT22;9040;51.332;12.406;2022-09-20T07:37:11;11.10;99.90
17831;DHT22;9040;51.332;12.406;2022-09-20T07:39:39;11.20;99.90
17831;DHT22;9040;51.332;12.406;2022-09-20T07:42:06;11.10;99.90
17831;DHT22;9040;51.332;12.406;2022-09-20T07:44:33;11.20;99.90
17831;DHT22;9040;51.332;12.406;2022-09-20T07:47:00;11.20;99.90
17831;DHT22;9040;51.332;12.406;2022-09-20T07:49:28;11.30;99.90
17831;DHT22;9040;51.332;12.406;2022-09-20T07:51:55;11.30;99.90
17831;DHT22;9040;51.332;12.406;2022-09-20T07:54:22;11.40;99.90
17831;DHT22;9040;51.332;12.406;2022-09-20T07:56:53;11.40;99.90
17831;DHT22;9040;51.332;12.406;2022-09-20T07:59:20;11.50;99.90
17831;DHT22;9040;51.332;12.406;2022-09-20T08:01:47;11.50;99.90
17831;DHT22;9040;51.332;12.406;2022-09-20T08:04:14;11.40;99.90
17831;DHT22;9040;51.332;12.406;2022-09-20T08:06:42;11.50;99.90
17831;DHT22;9040;51.332;12.406;2022-09-20T08:09:11;11.50;99.90
17831;DHT22;9040;51.332;12.406;2022-09-20T08:11:39;11.50;99.90
17831;DHT22;9040;51.332;12.406;2022-09-20T08:14:12;11.70;99.90
17831;DHT22;9040;51.332;12.406;2022-09-20T08:16:41;11.70;99.90
17831;DHT22;9040;51.332;12.406;2022-09-20T08:19:12;11.70;99.90
17831;DHT22;9040;51.332;12.406;2022-09-20T08:21:40;11.80;99.90
17831;DHT22;9040;51.332;12.406;2022-09-20T08:24:06;11.90;99.90
17831;DHT22;9040;51.332;12.406;2022-09-20T08:26:33;12.00;99.90
17831;DHT22;9040;51.332;12.406;2022-09-20T08:29:02;12.00;99.90
17831;DHT22;9040;51.332;12.406;2022-09-20T08:31:32;12.00;99.90
17831;DHT22;9040;51.332;12.406;2022-09-20T08:34:02;12.10;99.90
17831;DHT22;9040;51.332;12.406;2022-09-20T08:36:29;12.20;99.90
17831;DHT22;9040;51.332;12.406;2022-09-20T08:38:56;12.40;99.90
17831;DHT22;9040;51.332;12.406;2022-09-20T08:41:26;12.50;99.90
17831;DHT22;9040;51.332;12.406;2022-09-20T08:43:58;12.40;99.90
17831;DHT22;9040;51.332;12.406;2022-09-20T08:46:28;12.30;99.90
17831;DHT22;9040;51.332;12.406;2022-09-20T08:48:57;12.20;99.90
17831;DHT22;9040;51.332;12.406;2022-09-20T08:51:27;12.20;99.90
17831;DHT22;9040;51.332;12.406;2022-09-20T08:53:55;12.30;99.90
17831;DHT22;9040;51.332;12.406;2022-09-20T08:56:26;12.30;99.90
17831;DHT22;9040;51.332;12.406;2022-09-20T08:58:54;12.30;99.90
17831;DHT22;9040;51.332;12.406;2022-09-20T09:01:26;12.30;99.90
17831;DHT22;9040;51.332;12.406;2022-09-20T09:03:57;12.40;99.90
17831;DHT22;9040;51.332;12.406;2022-09-20T09:06:27;12.50;99.90
17831;DHT22;9040;51.332;12.406;2022-09-20T09:08:54;12.50;99.90
17831;DHT22;9040;51.332;12.406;2022-09-20T09:11:23;12.50;99.90
17831;DHT22;9040;51.332;12.406;2022-09-20T09:13:53;12.50;99.90
17831;DHT22;9040;51.332;12.406;2022-09-20T09:16:23;12.60;99.90
17831;DHT22;9040;51.332;12.406;2022-09-20T09:18:51;12.60;99.90
17831;DHT22;9040;51.332;12.406;2022-09-20T09:21:22;12.70;99.90
17831;DHT22;9040;51.332;12.406;2022-09-20T09:23:51;12.70;99.90
17831;DHT22;9040;51.332;12.406;2022-09-20T09:26:20;12.70;99.90
17831;DHT22;9040;51.332;12.406;2022-09-20T09:29:13;12.70;99.90
17831;DHT22;9040;51.332;12.406;2022-09-20T09:31:43;12.60;99.90
17831;DHT22;9040;51.332;12.406;2022-09-20T09:34:25;12.50;99.90
17831;DHT22;9040;51.332;12.406;2022-09-20T09:36:54;12.50;99.90
17831;DHT22;9040;51.332;12.406;2022-09-20T09:39:27;12.60;99.90
17831;DHT22;9040;51.332;12.406;2022-09-20T09:41:54;12.80;99.90
17831;DHT22;9040;51.332;12.406;2022-09-20T09:44:23;13.10;99.90
17831;DHT22;9040;51.332;12.406;2022-09-20T09:46:51;13.20;99.90
17831;DHT22;9040;51.332;12.406;2022-09-20T09:49:21;13.30;99.90
17831;DHT22;9040;51.332;12.406;2022-09-20T09:52:02;13.40;99.90
17831;DHT22;9040;51.332;12.406;2022-09-20T09:54:33;13.50;99.90
17831;DHT22;9040;51.332;12.406;2022-09-20T09:57:14;13.50;99.90
17831;DHT22;9040;51.332;12.406;2022-09-20T09:59:56;13.40;99.90
17831;DHT22;9040;51.332;12.406;2022-09-20T10:02:48;13.40;99.90
17831;DHT22;9040;51.332;12.406;2022-09-20T10:05:23;13.20;99.90
17831;DHT22;9040;51.332;12.406;2022-09-20T10:08:09;13.10;99.90
17831;DHT22;9040;51.332;12.406;2022-09-20T10:11:00;13.00;99.90
17831;DHT22;9040;51.332;12.406;2022-09-20T10:13:35;13.00;99.90
17831;DHT22;9040;51.332;12.406;2022-09-20T10:16:11;13.10;99.90
17831;DHT22;9040;51.332;12.406;2022-09-20T10:18:48;13.00;99.90
17831;DHT22;9040;51.332;12.406;2022-09-20T10:21:34;13.10;99.90
17831;DHT22;9040;51.332;12.406;2022-09-20T10:24:16;13.20;99.90
17831;DHT22;9040;51.332;12.406;2022-09-20T10:26:56;13.60;99.90
17831;DHT22;9040;51.332;12.406;2022-09-20T10:29:34;13.70;99.90
17831;DHT22;9040;51.332;12.406;2022-09-20T10:32:12;13.80;99.90
17831;DHT22;9040;51.332;12.406;2022-09-20T10:34:56;13.60;99.90
17831;DHT22;9040;51.332;12.406;2022-09-20T10:37:33;13.60;99.90
17831;DHT22;9040;51.332;12.406;2022-09-20T10:40:17;13.40;99.90
17831;DHT22;9040;51.332;12.406;2022-09-20T10:42:48;13.30;99.90
17831;DHT22;9040;51.332;12.406;2022-09-20T10:45:42;13.40;99.90
17831;DHT22;9040;51.332;12.406;2022-09-20T10:48:23;13.60;99.90
17831;DHT22;9040;51.332;12.406;2022-09-20T10:50:58;13.80;99.90
17831;DHT22;9040;51.332;12.406;2022-09-20T10:53:32;14.10;99.90
17831;DHT22;9040;51.332;12.406;2022-09-20T10:56:12;14.30;99.90
17831;DHT22;9040;51.332;12.406;2022-09-20T11:01:39;14.40;99.90
17831;DHT22;9040;51.332;12.406;2022-09-20T11:04:36;14.30;99.90
17831;DHT22;9040;51.332;12.406;2022-09-20T11:07:13;14.30;99.90
17831;DHT22;9040;51.332;12.406;2022-09-20T11:09:45;14.20;99.90
17831;DHT22;9040;51.332;12.406;2022-09-20T11:12:22;13.90;99.90
17831;DHT22;9040;51.332;12.406;2022-09-20T11:14:53;13.70;99.90
17831;DHT22;9040;51.332;12.406;2022-09-20T11:17:23;13.50;99.90
17831;DHT22;9040;51.332;12.406;2022-09-20T11:19:57;13.40;99.90
17831;DHT22;9040;51.332;12.406;2022-09-20T11:22:27;13.40;99.90
17831;DHT22;9040;51.332;12.406;2022-09-20T11:25:02;13.40;99.90
17831;DHT22;9040;51.332;12.406;2022-09-20T11:27:37;13.30;99.90
17831;DHT22;9040;51.332;12.406;2022-09-20T11:30:12;13.40;99.90
17831;DHT22;9040;51.332;12.406;2022-09-20T11:32:43;13.50;99.90
17831;DHT22;9040;51.332;12.406;2022-09-20T11:35:21;13.60;99.90
17831;DHT22;9040;51.332;12.406;2022-09-20T11:37:54;13.80;99.90
17831;DHT22;9040;51.332;12.406;2022-09-20T11:40:27;14.00;99.90
17831;DHT22;9040;51.332;12.406;2022-09-20T11:43:00;14.30;99.90
17831;DHT22;9040;51.332;12.406;2022-09-20T11:45:30;14.70;99.90
17831;DHT22;9040;51.332;12.406;2022-09-20T11:48:02;14.90;99.90
17831;DHT22;9040;51.332;12.406;2022-09-20T11:50:53;15.00;99.90
17831;DHT22;9040;51.332;12.406;2022-09-20T11:53:39;14.90;99.90
17831;DHT22;9040;51.332;12.406;2022-09-20T11:56:14;14.80;99.90
17831;DHT22;9040;51.332;12.406;2022-09-20T11:58:45;14.60;99.90
17831;DHT22;9040;51.332;12.406;2022-09-20T12:01:15;14.60;99.90
17831;DHT22;9040;51.332;12.406;2022-09-20T12:03:43;14.70;99.90
17831;DHT22;9040;51.332;12.406;2022-09-20T12:06:27;14.80;99.90
17831;DHT22;9040;51.332;12.406;2022-09-20T12:08:55;15.20;99.90
17831;DHT22;9040;51.332;12.406;2022-09-20T12:11:29;15.60;99.90
17831;DHT22;9040;51.332;12.406;2022-09-20T12:14:02;16.20;99.90
17831;DHT22;9040;51.332;12.406;2022-09-20T12:16:39;16.50;99.90
17831;DHT22;9040;51.332;12.406;2022-09-20T12:19:08;16.90;99.90
17831;DHT22;9040;51.332;12.406;2022-09-20T12:24:39;18.10;99.90
17831;DHT22;9040;51.332;12.406;2022-09-20T12:27:21;18.60;99.90
17831;DHT22;9040;51.332;12.406;2022-09-20T12:30:03;19.10;99.90
17831;DHT22;9040;51.332;12.406;2022-09-20T12:32:55;19.10;99.90
17831;DHT22;9040;51.332;12.406;2022-09-20T12:35:57;19.50;99.90
17831;DHT22;9040;51.332;12.406;2022-09-20T12:38:39;20.10;99.90
17831;DHT22;9040;51.332;12.406;2022-09-20T12:41:15;20.30;99.90
17831;DHT22;9040;51.332;12.406;2022-09-20T12:43:55;19.50;99.90
17831;DHT22;9040;51.332;12.406;2022-09-20T12:46:30;18.70;99.90
17831;DHT22;9040;51.332;12.406;2022-09-20T12:49:34;18.40;99.90
17831;DHT22;9040;51.332;12.406;2022-09-20T12:52:32;19.10;99.90
17831;DHT22;9040;51.332;12.406;2022-09-20T12:55:44;20.00;99.90
17831;DHT22;9040;51.332;12.406;2022-09-20T13:01:37;18.80;99.90
17831;DHT22;9040;51.332;12.406;2022-09-20T13:07:40;18.90;99.90
17831;DHT22;9040;51.332;12.406;2022-09-20T13:10:23;20.10;99.90
17831;DHT22;9040;51.332;12.406;2022-09-20T13:12:54;20.80;99.90
17831;DHT22;9040;51.332;12.406;2022-09-20T13:15:22;21.30;99.90
17831;DHT22;9040;51.332;12.406;2022-09-20T13:17:52;22.10;99.90
17831;DHT22;9040;51.332;12.406;2022-09-20T13:20:23;22.80;99.90
17831;DHT22;9040;51.332;12.406;2022-09-20T13:22:52;22.80;99.90
17831;DHT22;9040;51.332;12.406;2022-09-20T13:25:20;22.50;99.90
17831;DHT22;9040;51.332;12.406;2022-09-20T13:27:52;22.20;99.80
17831;DHT22;9040;51.332;12.406;2022-09-20T13:30:23;21.40;99.40
17831;DHT22;9040;51.332;12.406;2022-09-20T13:32:52;20.70;99.90
17831;DHT22;9040;51.332;12.406;2022-09-20T13:35:21;20.70;99.90
17831;DHT22;9040;51.332;12.406;2022-09-20T13:37:54;21.60;99.90
17831;DHT22;9040;51.332;12.406;2022-09-20T13:40:22;22.70;99.80
17831;DHT22;9040;51.332;12.406;2022-09-20T13:42:51;23.20;98.00
17831;DHT22;9040;51.332;12.406;2022-09-20T13:45:23;23.50;96.30
17831;DHT22;9040;51.332;12.406;2022-09-20T13:47:53;23.40;95.20
17831;DHT22;9040;51.332;12.406;2022-09-20T13:50:22;23.60;95.70
17831;DHT22;9040;51.332;12.406;2022-09-20T13:52:51;23.90;93.40
17831;DHT22;9040;51.332;12.406;2022-09-20T13:55:29;23.80;95.10
17831;DHT22;9040;51.332;12.406;2022-09-20T13:57:59;24.70;96.10
17831;DHT22;9040;51.332;12.406;2022-09-20T14:00:28;24.70;94.60
17831;DHT22;9040;51.332;12.406;2022-09-20T14:02:56;25.10;94.50
17831;DHT22;9040;51.332;12.406;2022-09-20T14:05:25;25.20;93.80
17831;DHT22;9040;51.332;12.406;2022-09-20T14:07:54;24.70;93.20
17831;DHT22;9040;51.332;12.406;2022-09-20T14:10:33;24.30;93.90
17831;DHT22;9040;51.332;12.406;2022-09-20T14:13:04;23.10;94.30
17831;DHT22;9040;51.332;12.406;2022-09-20T14:15:34;22.30;94.50
17831;DHT22;9040;51.332;12.406;2022-09-20T14:18:05;20.80;95.90
17831;DHT22;9040;51.332;12.406;2022-09-20T14:20:33;19.70;99.30
17831;DHT22;9040;51.332;12.406;2022-09-20T14:23:00;19.90;99.90
17831;DHT22;9040;51.332;12.406;2022-09-20T14:25:27;20.40;99.90
17831;DHT22;9040;51.332;12.406;2022-09-20T14:28:05;20.90;99.90
17831;DHT22;9040;51.332;12.406;2022-09-20T14:30:34;21.30;99.90
17831;DHT22;9040;51.332;12.406;2022-09-20T14:33:05;21.20;99.00
17831;DHT22;9040;51.332;12.406;2022-09-20T14:35:45;20.60;98.20
17831;DHT22;9040;51.332;12.406;2022-09-20T14:38:13;20.40;96.40
17831;DHT22;9040;51.332;12.406;2022-09-20T14:40:42;20.10;97.50
17831;DHT22;9040;51.332;12.406;2022-09-20T14:43:22;20.20;97.60
17831;DHT22;9040;51.332;12.406;2022-09-20T14:45:52;20.20;97.30
17831;DHT22;9040;51.332;12.406;2022-09-20T14:48:35;20.40;96.70
17831;DHT22;9040;51.332;12.406;2022-09-20T14:51:20;20.30;97.00
17831;DHT22;9040;51.332;12.406;2022-09-20T14:53:51;20.40;97.50
17831;DHT22;9040;51.332;12.406;2022-09-20T14:56:33;20.20;95.70
17831;DHT22;9040;51.332;12.406;2022-09-20T14:59:19;20.00;96.00
17831;DHT22;9040;51.332;12.406;2022-09-20T15:02:12;19.80;93.60
17831;DHT22;9040;51.332;12.406;2022-09-20T15:04:48;19.10;94.10
17831;DHT22;9040;51.332;12.406;2022-09-20T15:07:17;19.00;94.40
17831;DHT22;9040;51.332;12.406;2022-09-20T15:09:45;19.10;95.50
17831;DHT22;9040;51.332;12.406;2022-09-20T15:12:13;19.30;95.70
17831;DHT22;9040;51.332;12.406;2022-09-20T15:14:40;19.30;95.40
17831;DHT22;9040;51.332;12.406;2022-09-20T15:17:10;19.40;97.10
17831;DHT22;9040;51.332;12.406;2022-09-20T15:19:40;19.50;95.20
17831;DHT22;9040;51.332;12.406;2022-09-20T15:22:08;19.60;94.90
17831;DHT22;9040;51.332;12.406;2022-09-20T15:24:35;19.90;94.80
17831;DHT22;9040;51.332;12.406;2022-09-20T15:27:02;20.20;94.10
17831;DHT22;9040;51.332;12.406;2022-09-20T15:29:29;20.50;92.50
17831;DHT22;9040;51.332;12.406;2022-09-20T15:31:56;20.70;93.00
17831;DHT22;9040;51.332;12.406;2022-09-20T15:34:23;21.00;94.10
17831;DHT22;9040;51.332;12.406;2022-09-20T15:36:51;21.20;95.30
17831;DHT22;9040;51.332;12.406;2022-09-20T15:39:18;21.90;95.90
17831;DHT22;9040;51.332;12.406;2022-09-20T15:41:46;22.30;95.80
17831;DHT22;9040;51.332;12.406;2022-09-20T15:44:14;22.50;96.20
17831;DHT22;9040;51.332;12.406;2022-09-20T15:46:42;22.40;97.00
17831;DHT22;9040;51.332;12.406;2022-09-20T15:49:10;22.40;96.50
17831;DHT22;9040;51.332;12.406;2022-09-20T15:51:37;22.60;96.80
17831;DHT22;9040;51.332;12.406;2022-09-20T15:54:06;22.60;94.60
17831;DHT22;9040;51.332;12.406;2022-09-20T15:56:35;22.90;95.40
17831;DHT22;9040;51.332;12.406;2022-09-20T15:59:04;22.60;94.90
17831;DHT22;9040;51.332;12.406;2022-09-20T16:01:32;22.30;96.00
17831;DHT22;9040;51.332;12.406;2022-09-20T16:06:31;22.20;96.30
17831;DHT22;9040;51.332;12.406;2022-09-20T16:08:58;22.60;96.50
17831;DHT22;9040;51.332;12.406;2022-09-20T16:11:26;22.80;95.40
17831;DHT22;9040;51.332;12.406;2022-09-20T16:13:54;22.90;95.20
17831;DHT22;9040;51.332;12.406;2022-09-20T16:16:22;22.60;95.20
17831;DHT22;9040;51.332;12.406;2022-09-20T16:18:49;22.30;95.20
17831;DHT22;9040;51.332;12.406;2022-09-20T16:21:33;22.20;95.80
17831;DHT22;9040;51.332;12.406;2022-09-20T16:24:02;21.90;95.90
17831;DHT22;9040;51.332;12.406;2022-09-20T16:26:32;21.70;96.50
17831;DHT22;9040;51.332;12.406;2022-09-20T16:28:59;21.40;97.00
17831;DHT22;9040;51.332;12.406;2022-09-20T16:31:30;21.30;97.50
17831;DHT22;9040;51.332;12.406;2022-09-20T16:33:59;21.10;97.80
17831;DHT22;9040;51.332;12.406;2022-09-20T16:36:26;20.30;98.00
17831;DHT22;9040;51.332;12.406;2022-09-20T16:38:53;19.50;98.70
17831;DHT22;9040;51.332;12.406;2022-09-20T16:41:21;19.00;98.90
17831;DHT22;9040;51.332;12.406;2022-09-20T16:43:50;18.40;99.70
17831;DHT22;9040;51.332;12.406;2022-09-20T16:46:17;18.00;99.90
17831;DHT22;9040;51.332;12.406;2022-09-20T16:48:45;17.80;99.90
17831;DHT22;9040;51.332;12.406;2022-09-20T16:51:14;17.50;99.50
17831;DHT22;9040;51.332;12.406;2022-09-20T16:53:41;17.20;99.70
17831;DHT22;9040;51.332;12.406;2022-09-20T16:56:17;17.00;99.60
17831;DHT22;9040;51.332;12.406;2022-09-20T16:58:44;16.80;99.90
17831;DHT22;9040;51.332;12.406;2022-09-20T17:01:13;16.70;99.90